Time;durP1;ratioP1;P1;durP2;ratioP2;P2;SDS_P1;SDS_P2;PMS_P1;PMS_P2;Temp;Humidity;BMP_temperature;BMP_pressure;BME280_temperature;BME280_humidity;BME280_pressure;Samples;Min_cycle;Max_cycle;Signal;HPM_P1;HPM_P2
2022/03/22 00:02:14;;;;;;;0.93;0.60;;;;;;;-4.52;58.31;96571.69;6368310;27;20043;-61
2022/03/22 00:05:18;;;;;;;0.80;0.60;;;;;;;-4.57;57.96;96576.00;6369585;27;20043;-61
2022/03/22 00:08:23;;;;;;;1.05;0.60;;;;;;;-4.62;58.45;96577.75;6368202;27;20047;-61
2022/03/22 00:11:24;;;;;;;0.77;0.60;;;;;;;-4.67;58.12;96594.06;6370637;27;20035;-61
2022/03/22 00:14:27;;;;;;;0.73;0.70;;;;;;;-4.78;58.79;96591.63;6373961;27;20047;-61
2022/03/22 00:17:31;;;;;;;0.43;0.43;;;;;;;-4.81;58.77;96594.19;6374513;27;20058;-60
2022/03/22 00:20:35;;;;;;;0.80;0.65;;;;;;;-4.83;58.79;96604.50;6371056;27;20035;-60
2022/03/22 00:23:39;;;;;;;0.95;0.75;;;;;;;-4.75;58.95;96609.56;6375261;27;20488;-61
2022/03/22 00:26:40;;;;;;;0.57;0.43;;;;;;;-4.71;58.18;96620.66;6373538;27;20054;-62
2022/03/22 00:29:42;;;;;;;1.02;0.70;;;;;;;-4.76;58.75;96630.94;6374274;27;20046;-61
2022/03/22 00:32:46;;;;;;;1.63;0.52;;;;;;;-4.74;58.59;96629.22;6373627;27;20083;-61
2022/03/22 00:35:50;;;;;;;1.27;0.85;;;;;;;-5.01;59.18;96631.19;6372753;27;20038;-61
2022/03/22 00:38:52;;;;;;;1.48;0.52;;;;;;;-4.99;59.30;96644.81;6373038;27;20400;-61
2022/03/22 00:41:53;;;;;;;2.72;1.02;;;;;;;-5.02;59.05;96647.41;6374060;27;20073;-61
2022/03/22 00:44:55;;;;;;;1.35;0.88;;;;;;;-4.98;59.26;96648.25;6374592;27;20057;-65
2022/03/22 00:47:58;;;;;;;0.80;0.63;;;;;;;-4.99;58.93;96655.09;6357274;27;20103;-62
2022/03/22 00:50:59;;;;;;;0.55;0.50;;;;;;;-4.94;59.18;96662.75;6374123;27;20047;-61
2022/03/22 00:54:02;;;;;;;0.98;0.82;;;;;;;-4.94;58.77;96672.19;6370091;27;20035;-61
2022/03/22 00:57:04;;;;;;;2.67;1.07;;;;;;;-5.08;59.15;96673.13;6374008;27;20046;-61
2022/03/22 01:00:11;;;;;;;1.88;0.70;;;;;;;-5.16;59.74;96677.44;6373455;27;20457;-61
2022/03/22 01:03:15;;;;;;;4.20;0.60;;;;;;;-5.15;59.26;96668.91;6371930;27;20585;-61
2022/03/22 01:06:23;;;;;;;0.88;0.68;;;;;;;-5.27;59.41;96679.22;6372817;27;20046;-61
2022/03/22 01:09:24;;;;;;;0.52;0.50;;;;;;;-5.36;60.00;96684.41;6370131;27;20043;-61
2022/03/22 01:12:29;;;;;;;1.48;0.70;;;;;;;-5.48;60.16;96675.94;6373441;27;20496;-63
2022/03/22 01:15:42;;;;;;;1.60;0.60;;;;;;;-5.42;59.99;96690.41;6372325;27;20233;-61
2022/03/22 01:18:44;;;;;;;0.90;0.68;;;;;;;-5.32;59.89;96696.34;6367866;27;20051;-63
2022/03/22 01:21:45;;;;;;;3.13;1.00;;;;;;;-5.53;60.42;96677.66;6377537;27;20038;-61
2022/03/22 01:24:52;;;;;;;0.73;0.70;;;;;;;-5.50;60.11;96697.28;6370903;27;20039;-62
2022/03/22 01:27:54;;;;;;;0.60;0.45;;;;;;;-5.50;60.41;96710.97;6372305;27;20427;-63
2022/03/22 01:30:56;;;;;;;1.17;0.80;;;;;;;-5.32;59.80;96701.47;6373249;27;20039;-60
2022/03/22 01:33:59;;;;;;;3.65;0.88;;;;;;;-5.29;59.95;96706.63;6367961;27;20067;-61
2022/03/22 01:37:01;;;;;;;1.83;0.70;;;;;;;-5.45;59.79;96706.66;6373499;27;20500;-62
2022/03/22 01:40:04;;;;;;;0.70;0.70;;;;;;;-5.33;59.32;96716.00;6372462;27;20054;-63
2022/03/22 01:43:08;;;;;;;1.70;0.90;;;;;;;-5.38;60.04;96722.88;6372356;27;20804;-62
2022/03/22 01:46:12;;;;;;;2.08;0.80;;;;;;;-5.46;59.65;96719.50;6370998;27;20038;-62
2022/03/22 01:49:19;;;;;;;1.58;0.60;;;;;;;-5.33;59.60;96730.56;6369625;27;20540;-60
2022/03/22 01:52:24;;;;;;;2.50;1.17;;;;;;;-5.36;59.29;96726.28;6373870;27;20105;-61
2022/03/22 01:55:28;;;;;;;1.58;0.80;;;;;;;-5.44;59.50;96725.47;6375651;27;20495;-60
2022/03/22 01:58:32;;;;;;;2.13;1.08;;;;;;;-5.62;59.81;96728.97;6374634;27;20487;-61
2022/03/22 02:08:19;;;;;;;2.47;1.02;;;;;;;-5.67;60.08;96739.22;6371556;27;20047;-61
2022/03/22 02:11:21;;;;;;;0.70;0.60;;;;;;;-5.74;59.55;96735.00;6353260;27;20542;-62
2022/03/22 02:14:26;;;;;;;1.90;0.77;;;;;;;-5.50;59.67;96749.41;6371482;27;20054;-61
2022/03/22 02:17:27;;;;;;;0.75;0.65;;;;;;;-5.40;59.22;96746.84;6371121;27;20123;-61
2022/03/22 02:20:29;;;;;;;1.10;0.60;;;;;;;-5.46;59.62;96761.38;6370322;27;20054;-61
2022/03/22 02:24:06;;;;;;;2.00;1.42;;;;;;;-5.31;59.13;96767.31;6372417;27;20047;-62
2022/03/22 02:27:10;;;;;;;0.98;0.82;;;;;;;-5.33;58.98;96761.31;6264681;27;20418;-62
2022/03/22 02:30:13;;;;;;;1.02;0.90;;;;;;;-5.30;58.74;96771.56;6371779;27;20042;-62
2022/03/22 02:33:16;;;;;;;1.60;0.70;;;;;;;-5.35;59.08;96788.69;6372453;27;20565;-61
2022/03/22 02:36:24;;;;;;;1.25;1.10;;;;;;;-5.44;59.00;96790.41;6369805;27;20042;-61
2022/03/22 02:39:31;;;;;;;1.17;0.85;;;;;;;-5.41;58.61;96789.56;6369024;27;20489;-61
2022/03/22 02:42:35;;;;;;;1.80;1.30;;;;;;;-5.34;58.74;96795.53;6370508;27;20047;-61
2022/03/22 02:45:39;;;;;;;1.05;0.82;;;;;;;-5.25;58.84;96787.78;6372009;27;20495;-61
2022/03/22 02:48:46;;;;;;;1.20;1.05;;;;;;;-5.16;58.11;96798.00;6371172;27;20039;-61
2022/03/22 02:51:52;;;;;;;3.05;1.17;;;;;;;-5.11;57.74;96809.09;6370222;27;20561;-61
2022/03/22 02:54:54;;;;;;;1.38;0.90;;;;;;;-5.18;58.07;96812.53;6353307;27;20389;-60
2022/03/22 02:57:58;;;;;;;1.17;0.93;;;;;;;-5.26;58.16;96824.56;6371156;27;20046;-61
2022/03/22 03:01:02;;;;;;;1.30;1.10;;;;;;;-5.18;58.80;96827.94;6370635;27;20035;-59
2022/03/22 03:04:06;;;;;;;3.40;0.95;;;;;;;-5.07;57.97;96830.47;6373843;27;20043;-59
2022/03/22 03:07:07;;;;;;;1.90;1.17;;;;;;;-5.14;57.95;96829.66;6371975;27;20053;-60
2022/03/22 03:10:11;;;;;;;1.58;0.70;;;;;;;-5.06;58.09;96833.03;6373487;27;20051;-60
2022/03/22 03:13:15;;;;;;;1.35;0.75;;;;;;;-5.05;58.42;96845.00;6375618;27;20050;-61
2022/03/22 03:16:22;;;;;;;1.55;1.00;;;;;;;-5.11;58.57;96855.28;6372051;27;20145;-60
2022/03/22 03:19:28;;;;;;;0.90;0.63;;;;;;;-5.00;58.23;96863.78;6370521;27;20056;-62
2022/03/22 03:22:29;;;;;;;0.95;0.88;;;;;;;-5.04;58.74;96862.13;6370594;27;20174;-61
2022/03/22 03:25:35;;;;;;;1.73;1.27;;;;;;;-5.02;58.95;96867.22;6371425;27;20957;-59
2022/03/22 03:28:37;;;;;;;1.30;0.70;;;;;;;-4.82;58.20;96872.28;6366577;27;20699;-60
2022/03/22 03:31:39;;;;;;;0.98;0.60;;;;;;;-4.69;57.96;96873.94;6353788;27;20061;-62
2022/03/22 03:34:46;;;;;;;2.13;1.50;;;;;;;-4.69;57.46;96884.19;6369241;27;20498;-60
2022/03/22 03:37:47;;;;;;;2.85;0.90;;;;;;;-4.52;57.43;96879.81;6370700;27;20043;-61
2022/03/22 03:47:38;;;;;;;2.50;1.10;;;;;;;-4.42;57.53;96887.47;6367795;27;20519;-60
2022/03/22 03:50:39;;;;;;;1.73;1.10;;;;;;;-4.26;56.77;96898.53;6376090;27;20053;-60
2022/03/22 03:53:45;;;;;;;1.17;0.70;;;;;;;-4.26;56.75;96901.94;6375601;27;20089;-61
2022/03/22 03:56:51;;;;;;;1.38;0.90;;;;;;;-4.31;56.64;96903.66;6379440;27;20045;-61
2022/03/22 03:59:55;;;;;;;1.38;0.82;;;;;;;-4.25;56.48;96901.06;6379006;27;20070;-60
2022/03/22 04:02:57;;;;;;;3.33;1.08;;;;;;;-4.24;56.74;96913.06;6373239;27;20599;-60
2022/03/22 04:05:58;;;;;;;4.45;1.42;;;;;;;-4.28;56.67;96916.50;6376046;27;20074;-61
2022/03/22 04:09:05;;;;;;;1.17;0.93;;;;;;;-4.19;56.37;96898.47;6373564;27;20046;-60
2022/03/22 04:12:12;;;;;;;1.40;1.00;;;;;;;-4.10;56.15;96921.53;6376217;27;20557;-58
2022/03/22 04:15:14;;;;;;;2.92;1.17;;;;;;;-4.06;55.85;96923.22;6377095;27;20636;-61
2022/03/22 04:18:15;;;;;;;1.05;0.70;;;;;;;-3.86;55.14;96924.78;6370712;27;20047;-61
2022/03/22 04:21:19;;;;;;;1.20;1.00;;;;;;;-3.88;55.49;96931.66;6359248;27;20043;-58
2022/03/22 04:24:20;;;;;;;2.15;1.08;;;;;;;-3.78;55.09;96940.16;6373592;27;20051;-62
2022/03/22 04:34:14;;;;;;;5.90;1.00;;;;;;;-3.67;54.51;96946.94;6375113;27;20164;-63
2022/03/22 04:37:20;;;;;;;2.20;0.75;;;;;;;-3.56;54.26;96953.72;6375522;27;20051;-62
2022/03/22 04:40:25;;;;;;;1.00;0.95;;;;;;;-3.47;53.78;96958.78;6374119;27;20047;-61
2022/03/22 04:43:26;;;;;;;1.52;0.95;;;;;;;-3.48;53.76;96944.19;6370213;27;20050;-61
2022/03/22 04:46:30;;;;;;;1.38;0.88;;;;;;;-3.50;54.48;96951.09;6373573;27;20038;-60
2022/03/22 04:49:33;;;;;;;2.03;1.00;;;;;;;-3.37;53.98;96950.09;6374528;27;20050;-60
2022/03/22 04:59:24;;;;;;;2.70;0.82;;;;;;;-3.06;53.22;96954.97;6373747;27;20038;-59
2022/03/22 05:02:27;;;;;;;1.00;0.75;;;;;;;-2.99;52.86;96965.19;6371249;27;20031;-60
2022/03/22 05:08:49;;;;;;;1.50;0.90;;;;;;;-2.71;52.57;96994.09;6374686;27;20054;-61
2022/03/22 05:11:51;;;;;;;1.92;0.82;;;;;;;-2.60;51.96;96982.84;6372338;27;20054;-60
2022/03/22 05:14:52;;;;;;;2.00;0.70;;;;;;;-2.52;51.11;96983.56;6372787;27;20438;-61
2022/03/22 05:17:56;;;;;;;2.60;0.63;;;;;;;-2.49;50.85;96978.41;6367540;27;20043;-59
2022/03/22 05:20:58;;;;;;;1.33;0.93;;;;;;;-2.39;50.94;96986.88;6369728;27;20393;-60
2022/03/22 05:23:59;;;;;;;2.20;0.98;;;;;;;-2.36;50.82;96990.25;6370182;27;20051;-61
2022/03/22 05:27:03;;;;;;;0.75;0.50;;;;;;;-2.28;49.97;96980.72;6371898;27;20165;-60
2022/03/22 05:30:07;;;;;;;0.95;0.50;;;;;;;-2.17;49.62;96995.19;6373560;27;20047;-66
2022/03/22 05:33:09;;;;;;;0.93;0.70;;;;;;;-2.16;50.12;96996.91;6373161;27;20465;-67
2022/03/22 05:36:13;;;;;;;;;;;;;;;-1.95;49.77;96990.59;6372651;27;20069;-69
2022/03/22 05:39:19;;;;;;;1.33;0.73;;;;;;;-1.94;49.42;96993.16;6379111;27;19923;-71
2022/03/22 05:42:25;;;;;;;2.67;0.88;;;;;;;-1.65;49.18;96994.47;6372101;27;20035;-71
2022/03/22 05:45:29;;;;;;;3.08;1.00;;;;;;;1.82;43.42;97000.03;6369756;27;20061;-73
2022/03/22 05:48:30;;;;;;;;;;;;;;;6.35;34.58;97000.66;6372528;27;20044;-66
2022/03/22 05:51:31;;;;;;;0.85;0.57;;;;;;;9.32;28.42;96997.50;6368255;27;19925;-70
2022/03/22 05:54:34;;;;;;;1.27;0.70;;;;;;;10.96;25.16;97007.72;6355302;27;20127;-66
2022/03/22 05:57:35;;;;;;;0.93;0.70;;;;;;;11.78;24.23;97011.13;6369745;27;20632;-63
2022/03/22 06:00:37;;;;;;;0.82;0.60;;;;;;;13.28;22.70;97008.50;6371281;27;20058;-64
2022/03/22 06:03:39;;;;;;;1.20;1.00;;;;;;;14.69;21.39;97021.59;6366347;27;20047;-62
2022/03/22 06:06:40;;;;;;;0.88;0.63;;;;;;;16.23;19.99;97014.31;6371129;27;20055;-62
2022/03/22 06:09:42;;;;;;;1.77;0.85;;;;;;;17.06;18.41;97019.41;6372095;27;20059;-62
2022/03/22 06:12:52;;;;;;;0.70;0.50;;;;;;;16.69;17.80;97021.78;6372694;27;20043;-61
2022/03/22 06:15:58;;;;;;;1.13;0.70;;;;;;;16.69;17.84;97021.78;6366265;27;20563;-62
2022/03/22 06:19:02;;;;;;;0.52;0.40;;;;;;;18.33;17.07;97036.28;6371204;27;20039;-61
2022/03/22 06:22:05;;;;;;;0.60;0.47;;;;;;;19.83;15.79;97034.28;6371199;27;20039;-63
2022/03/22 06:25:09;;;;;;;1.27;0.50;;;;;;;21.03;15.30;97041.63;6371846;27;20050;-61
2022/03/22 06:28:14;;;;;;;1.37;0.33;;;;;;;21.73;14.29;97038.66;6368713;27;20038;-61
2022/03/22 06:31:16;;;;;;;0.50;0.30;;;;;;;21.62;13.95;97040.81;6367892;27;20051;-62
2022/03/22 06:34:17;;;;;;;0.60;0.50;;;;;;;21.24;13.81;97032.34;6368754;27;20035;-61
2022/03/22 06:37:22;;;;;;;1.02;0.40;;;;;;;20.81;13.94;97035.00;6372414;27;20420;-62
2022/03/22 06:40:28;;;;;;;0.45;0.43;;;;;;;21.71;13.40;97034.47;6370805;27;20461;-60
2022/03/22 06:43:32;;;;;;;0.85;0.40;;;;;;;22.73;12.74;97035.78;6372522;27;20107;-62
2022/03/22 06:46:33;;;;;;;0.60;0.45;;;;;;;23.22;12.20;97046.38;6368108;27;20460;-61
2022/03/22 06:49:37;;;;;;;1.75;0.38;;;;;;;22.89;12.09;97044.78;6367893;27;20420;-61
2022/03/22 06:52:39;;;;;;;1.77;0.50;;;;;;;22.73;12.19;97041.16;6373646;27;20127;-61
2022/03/22 06:55:43;;;;;;;0.43;0.40;;;;;;;22.19;12.10;97038.19;6372669;27;20035;-61
2022/03/22 06:58:50;;;;;;;1.05;0.60;;;;;;;21.77;12.31;97023.13;6365834;27;20039;-61
2022/03/22 07:01:51;;;;;;;0.60;0.40;;;;;;;22.01;12.17;97049.06;6372088;27;20039;-62
2022/03/22 07:04:52;;;;;;;0.55;0.40;;;;;;;21.14;12.61;97042.31;6371443;27;20359;-60
2022/03/22 07:07:57;;;;;;;1.52;0.47;;;;;;;20.96;12.68;97043.25;6379376;27;20104;-62
2022/03/22 07:14:24;;;;;;;0.60;0.30;;;;;;;21.35;12.00;97050.78;6381837;27;20042;-59
2022/03/22 07:17:25;;;;;;;0.60;0.60;;;;;;;22.24;11.77;97051.94;6381200;27;20116;-59
2022/03/22 07:20:28;;;;;;;0.57;0.40;;;;;;;23.07;11.31;97054.34;6382872;27;20043;-60
2022/03/22 07:23:29;;;;;;;0.60;0.40;;;;;;;23.83;10.86;97059.16;6390686;27;20053;-60
2022/03/22 07:26:30;;;;;;;0.98;0.60;;;;;;;24.97;10.50;97063.56;6383720;27;20115;-61
2022/03/22 07:29:34;;;;;;;0.40;0.30;;;;;;;24.42;10.11;97062.06;6386430;27;20054;-58
2022/03/22 07:32:39;;;;;;;1.77;0.40;;;;;;;22.89;10.66;97056.34;6389286;27;20035;-59
2022/03/22 07:35:43;;;;;;;0.70;0.50;;;;;;;21.96;11.63;97049.56;6380934;27;20066;-59
2022/03/22 07:38:47;;;;;;;0.60;0.60;;;;;;;22.52;11.29;97054.28;6377691;27;20050;-60
2022/03/22 07:41:51;;;;;;;2.13;0.50;;;;;;;22.27;11.51;97054.28;6379295;27;20047;-59
2022/03/22 07:44:56;;;;;;;0.95;0.65;;;;;;;22.07;11.38;97045.72;6372930;27;20119;-59
2022/03/22 07:48:00;;;;;;;0.95;0.40;;;;;;;21.98;11.38;97042.19;6388447;27;20031;-60
2022/03/22 07:54:26;;;;;;;0.63;0.40;;;;;;;19.61;12.39;97045.38;6385015;27;20522;-60
2022/03/22 07:57:32;;;;;;;0.65;0.63;;;;;;;19.50;12.62;97051.78;6382346;27;20043;-60
2022/03/22 08:00:40;;;;;;;1.10;0.55;;;;;;;20.34;12.02;97039.84;6390460;27;20039;-60
2022/03/22 08:03:42;;;;;;;0.60;0.50;;;;;;;20.50;12.17;97045.31;6390140;27;20043;-61
2022/03/22 08:06:46;;;;;;;0.60;0.50;;;;;;;21.50;11.81;97043.81;6391900;27;20189;-59
2022/03/22 08:09:47;;;;;;;0.57;0.47;;;;;;;22.98;11.18;97043.78;6378423;27;20066;-60
2022/03/22 08:12:49;;;;;;;0.57;0.47;;;;;;;23.94;10.77;97050.69;6378915;27;20413;-60
2022/03/22 08:15:51;;;;;;;0.93;0.40;;;;;;;24.80;10.08;97045.94;6382788;27;20079;-60
2022/03/22 08:18:57;;;;;;;1.17;0.70;;;;;;;25.08;10.03;97055.03;6376843;27;20039;-60
2022/03/22 08:21:59;;;;;;;0.70;0.50;;;;;;;25.53;9.58;97050.44;6379686;27;20492;-60
2022/03/22 08:25:00;;;;;;;0.95;0.40;;;;;;;24.13;10.32;97044.81;6376388;27;20038;-62
2022/03/22 08:28:03;;;;;;;0.47;0.40;;;;;;;24.32;10.44;97053.44;6373733;27;20035;-60
2022/03/22 08:31:08;;;;;;;0.30;0.20;;;;;;;24.79;10.34;97053.13;6376984;27;20050;-62
2022/03/22 08:34:09;;;;;;;1.15;0.50;;;;;;;25.45;9.80;97045.16;6385075;27;20424;-60
2022/03/22 08:37:12;;;;;;;0.93;0.30;;;;;;;25.32;9.83;97050.38;6386356;27;20491;-61
2022/03/22 08:40:18;;;;;;;1.20;0.50;;;;;;;25.88;9.44;97056.03;6376448;27;20039;-61
2022/03/22 08:43:20;;;;;;;0.60;0.40;;;;;;;24.85;10.17;97046.19;6374352;27;20065;-62
2022/03/22 08:46:24;;;;;;;0.20;0.20;;;;;;;25.86;9.38;97047.28;6381142;27;20104;-61
2022/03/22 08:49:30;;;;;;;1.80;0.60;;;;;;;25.42;9.44;97048.25;6381792;27;20476;-61
2022/03/22 08:52:32;;;;;;;0.40;0.40;;;;;;;24.49;10.21;97046.06;6388463;27;20051;-61
2022/03/22 08:55:37;;;;;;;0.22;0.22;;;;;;;24.30;9.92;97048.22;6381442;27;20051;-72
2022/03/22 08:58:53;;;;;;;0.22;0.20;;;;;;;23.56;10.62;97041.69;6374084;27;20066;-71
2022/03/22 09:01:54;;;;;;;0.25;0.20;;;;;;;23.72;10.33;97039.78;6377572;27;20117;-73
2022/03/22 09:08:25;;;;;;;0.50;0.30;;;;;;;23.07;10.66;97032.88;6372827;27;20400;-68
2022/03/22 09:11:30;;;;;;;0.32;0.25;;;;;;;22.97;10.95;97042.13;6372799;27;20586;-70
2022/03/22 09:14:43;;;;;;;1.00;0.30;;;;;;;23.89;10.32;97034.25;6378199;27;20137;-71
2022/03/22 09:17:52;;;;;;;0.30;0.28;;;;;;;24.09;9.63;97032.78;6375437;27;20039;-69
2022/03/22 09:20:57;;;;;;;1.17;0.30;;;;;;;24.10;10.06;97029.06;6374367;27;20043;-69
2022/03/22 09:24:05;;;;;;;1.98;0.60;;;;;;;23.46;10.58;97034.66;6377938;27;20042;-75
2022/03/22 09:27:10;;;;;;;1.42;0.40;;;;;;;23.00;10.75;97028.34;6380250;27;20051;-70
2022/03/22 09:30:15;;;;;;;0.47;0.30;;;;;;;22.96;10.90;97032.41;6389125;27;20041;-69
2022/03/22 09:33:17;;;;;;;0.75;0.35;;;;;;;23.77;10.64;97035.69;6375079;27;20058;-68
2022/03/22 09:36:20;;;;;;;0.50;0.50;;;;;;;24.33;10.32;97028.19;6388779;27;20134;-67
2022/03/22 09:39:24;;;;;;;0.35;0.35;;;;;;;23.51;10.46;97028.78;6390360;27;20039;-67
2022/03/22 09:42:34;;;;;;;0.20;0.20;;;;;;;22.37;11.52;97020.09;6377711;27;20412;-67
2022/03/22 09:45:42;;;;;;;0.60;0.20;;;;;;;21.97;11.56;97024.47;6372978;27;20034;-67
2022/03/22 09:48:47;;;;;;;1.42;0.50;;;;;;;21.91;11.50;97017.09;6380165;27;20054;-68
2022/03/22 09:51:52;;;;;;;0.52;0.52;;;;;;;22.06;11.18;97013.75;6378526;27;20142;-69
2022/03/22 09:54:56;;;;;;;0.57;0.35;;;;;;;21.45;11.84;97005.97;6379712;27;20136;-70
2022/03/22 09:58:02;;;;;;;0.25;0.25;;;;;;;21.18;11.81;97008.91;6380108;27;20047;-68
2022/03/22 10:01:07;;;;;;;1.35;0.20;;;;;;;20.75;12.31;97005.38;6372611;27;20054;-68
2022/03/22 10:04:18;;;;;;;0.32;0.30;;;;;;;20.46;12.68;97006.53;6369722;27;20451;-70
2022/03/22 10:07:22;;;;;;;0.35;0.30;;;;;;;21.11;12.03;97007.88;6376628;27;20055;-69
2022/03/22 10:10:29;;;;;;;0.85;0.30;;;;;;;21.23;12.04;96993.16;6379036;27;20043;-71
2022/03/22 10:13:49;;;;;;;0.30;0.30;;;;;;;21.88;11.40;97004.03;6379324;27;20078;-69
2022/03/22 10:16:55;;;;;;;0.52;0.40;;;;;;;22.53;11.15;97002.31;6379717;27;20681;-70
2022/03/22 10:20:02;;;;;;;1.38;0.52;;;;;;;22.82;11.14;97007.09;6372708;27;20046;-71
2022/03/22 10:23:11;;;;;;;0.65;0.40;;;;;;;23.39;10.66;97008.72;6379070;27;20082;-69
2022/03/22 10:26:15;;;;;;;0.40;0.38;;;;;;;22.91;10.89;96999.84;6357180;27;20043;-70
2022/03/22 10:29:21;;;;;;;1.67;0.52;;;;;;;22.37;11.23;96995.97;6376375;27;20050;-70
2022/03/22 10:32:39;;;;;;;0.20;0.20;;;;;;;22.08;11.55;96987.59;6375107;27;20043;-69
2022/03/22 10:35:48;;;;;;;1.20;0.40;;;;;;;21.12;12.07;96993.47;6377551;27;20039;-69
2022/03/22 10:39:03;;;;;;;0.40;0.40;;;;;;;20.77;12.43;96993.50;6377483;27;20041;-71
2022/03/22 10:42:08;;;;;;;1.45;0.50;;;;;;;19.90;12.97;96987.28;6375675;27;20039;-72
2022/03/22 10:45:10;;;;;;;0.57;0.30;;;;;;;19.86;12.92;96982.41;6370302;27;20039;-69
2022/03/22 10:48:27;;;;;;;0.35;0.35;;;;;;;19.78;12.78;96977.00;6373386;27;20497;-70
2022/03/22 10:51:47;;;;;;;1.15;0.65;;;;;;;19.71;13.20;96972.28;6376430;27;20042;-70
2022/03/22 10:54:48;;;;;;;0.60;0.50;;;;;;;19.55;13.07;96979.25;6376014;27;20035;-70
2022/03/22 10:57:56;;;;;;;0.82;0.52;;;;;;;19.34;13.38;96979.59;6375783;27;20035;-69
2022/03/22 11:01:05;;;;;;;0.75;0.50;;;;;;;19.29;13.55;96972.84;6372681;27;20046;-70
2022/03/22 11:04:15;;;;;;;1.20;0.50;;;;;;;19.05;13.70;96977.91;6354832;27;20039;-70
2022/03/22 11:07:20;;;;;;;0.98;0.57;;;;;;;18.76;13.56;96973.59;6358423;27;20673;-70
2022/03/22 11:10:30;;;;;;;0.60;0.60;;;;;;;18.50;13.98;96972.56;6367350;27;20035;-69
2022/03/22 11:13:36;;;;;;;1.45;0.80;;;;;;;18.17;14.54;96966.78;6374108;27;20499;-69
2022/03/22 11:16:47;;;;;;;0.77;0.57;;;;;;;18.36;14.49;96965.88;6368509;27;20173;-72
2022/03/22 11:19:55;;;;;;;3.75;0.70;;;;;;;19.28;14.08;96973.84;6358807;27;20053;-72
2022/03/22 11:23:00;;;;;;;0.80;0.65;;;;;;;20.21;13.32;96967.28;6365731;27;20043;-72
2022/03/22 11:26:16;;;;;;;0.40;0.40;;;;;;;20.56;13.18;96975.22;6370702;27;20039;-72
2022/03/22 11:29:24;;;;;;;0.40;0.30;;;;;;;19.85;13.47;96972.72;6368243;27;20739;-70
2022/03/22 11:35:52;;;;;;;1.30;0.95;;;;;;;20.24;13.29;96958.94;6368821;27;20495;-69
2022/03/22 11:39:02;;;;;;;1.17;0.80;;;;;;;20.61;12.93;96950.69;6369508;27;20443;-70
2022/03/22 11:42:17;;;;;;;0.90;0.60;;;;;;;19.77;13.11;96949.47;6373149;27;20047;-68
2022/03/22 11:45:19;;;;;;;0.52;0.50;;;;;;;19.05;13.79;96946.78;6349028;27;20042;-72
2022/03/22 11:48:34;;;;;;;1.02;0.70;;;;;;;17.91;13.79;96940.78;6351662;27;20038;-73
2022/03/22 11:51:54;;;;;;;3.47;1.90;;;;;;;17.20;14.95;96950.88;6367713;27;20039;-71
2022/03/22 11:55:09;;;;;;;1.33;0.60;;;;;;;17.67;14.71;96956.34;6370050;27;20043;-71
2022/03/22 11:58:17;;;;;;;0.80;0.50;;;;;;;17.56;14.50;96948.50;6368060;27;20151;-70
2022/03/22 12:01:35;;;;;;;1.15;0.80;;;;;;;17.57;14.77;96945.69;6380050;27;20431;-70
2022/03/22 12:04:54;;;;;;;1.30;0.95;;;;;;;17.49;15.06;96945.56;6370709;27;20039;-69
2022/03/22 12:08:16;;;;;;;2.47;0.80;;;;;;;17.44;16.04;96932.69;6372967;27;20042;-69
2022/03/22 12:11:20;;;;;;;2.55;1.50;;;;;;;17.27;15.68;96930.75;6377340;27;20463;-68
2022/03/22 12:14:28;;;;;;;;;;;;;;;17.70;15.26;96932.13;6374661;27;20065;-68
2022/03/22 12:17:32;;;;;;;1.02;0.88;;;;;;;16.94;15.23;96940.78;6380236;27;19919;-69
2022/03/22 12:20:42;;;;;;;2.63;0.95;;;;;;;16.42;16.08;96934.75;6378298;27;20043;-68
2022/03/22 12:23:50;;;;;;;0.70;0.70;;;;;;;16.23;16.64;96940.81;6380923;27;20039;-68
2022/03/22 12:26:52;;;;;;;3.33;1.02;;;;;;;15.41;17.24;96938.03;6378399;27;20066;-69
2022/03/22 12:29:59;;;;;;;3.22;1.00;;;;;;;14.75;17.88;96936.34;6375413;27;20042;-68
2022/03/22 12:33:14;;;;;;;1.25;0.82;;;;;;;14.19;18.39;96944.31;6375977;27;20047;-68
2022/03/22 12:36:19;;;;;;;1.00;0.70;;;;;;;14.02;18.91;96926.25;6359703;27;20051;-69
2022/03/22 12:39:24;;;;;;;1.95;0.98;;;;;;;13.74;18.77;96922.25;6376427;27;20673;-69
2022/03/22 12:42:31;;;;;;;3.30;1.90;;;;;;;12.99;19.62;96916.38;6377552;27;20043;-68
2022/03/22 12:45:35;;;;;;;1.52;1.42;;;;;;;12.04;20.57;96906.53;6379076;27;20043;-68
2022/03/22 12:48:41;;;;;;;3.13;2.08;;;;;;;11.19;21.39;96909.63;6373704;27;20074;-68
2022/03/22 12:51:50;;;;;;;4.30;1.45;;;;;;;10.30;22.35;96910.16;6373286;27;20527;-71
2022/03/22 12:54:56;;;;;;;3.00;1.33;;;;;;;9.65;23.00;96899.25;6349298;27;20106;-70
2022/03/22 12:58:02;;;;;;;1.98;1.00;;;;;;;9.15;23.52;96898.72;6349414;27;20046;-73
2022/03/22 13:01:09;;;;;;;1.48;1.13;;;;;;;8.84;24.11;96909.31;6372075;27;20051;-71
2022/03/22 13:04:23;;;;;;;1.77;0.70;;;;;;;8.67;24.16;96903.25;6371859;27;20520;-71
2022/03/22 13:07:29;;;;;;;1.83;1.02;;;;;;;8.49;24.51;96910.38;6374521;27;20509;-72
2022/03/22 13:17:29;;;;;;;1.67;1.20;;;;;;;7.73;25.95;96894.41;6354636;27;20170;-72
2022/03/22 13:20:35;;;;;;;2.05;0.93;;;;;;;7.25;26.50;96900.44;6370998;27;20051;-71
2022/03/22 13:23:41;;;;;;;0.73;0.73;;;;;;;6.22;28.01;96879.31;6370455;27;20307;-71
2022/03/22 13:26:57;;;;;;;1.02;0.70;;;;;;;5.32;29.40;96887.72;6369733;27;20661;-71
2022/03/22 13:30:03;;;;;;;1.20;0.70;;;;;;;4.46;30.87;96901.72;6371792;27;20047;-71
2022/03/22 13:33:10;;;;;;;0.73;0.73;;;;;;;3.76;32.02;96901.84;6369288;27;20043;-71
2022/03/22 13:36:18;;;;;;;1.55;1.30;;;;;;;3.30;33.28;96906.13;6369989;27;20046;-72
2022/03/22 13:39:24;;;;;;;5.13;1.30;;;;;;;2.87;34.36;96886.81;6348170;27;20054;-72
2022/03/22 13:42:30;;;;;;;2.05;1.00;;;;;;;2.67;34.45;96885.75;6369667;27;20047;-71
2022/03/22 13:45:41;;;;;;;1.10;0.95;;;;;;;2.48;34.96;96906.25;6371468;27;20054;-70
2022/03/22 13:48:51;;;;;;;1.58;1.30;;;;;;;2.09;35.18;96897.97;6367868;27;20126;-71
2022/03/22 13:51:55;;;;;;;3.08;1.60;;;;;;;1.70;35.49;96900.91;6369246;27;20035;-72
2022/03/22 13:55:02;;;;;;;2.05;1.50;;;;;;;1.54;35.44;96923.81;6371045;27;20054;-71
2022/03/22 13:58:16;;;;;;;1.95;1.13;;;;;;;1.36;35.87;96916.56;6371643;27;20047;-71
2022/03/22 14:01:21;;;;;;;1.40;1.30;;;;;;;1.11;36.00;96911.19;6352094;27;20400;-71
2022/03/22 14:04:25;;;;;;;1.52;1.42;;;;;;;0.83;36.10;96905.88;6369422;27;20043;-72
2022/03/22 14:07:27;;;;;;;1.98;1.77;;;;;;;0.66;36.70;96911.50;6366184;27;20392;-71
2022/03/22 14:10:30;;;;;;;1.83;1.30;;;;;;;0.53;36.89;96890.22;6368446;27;20408;-72
2022/03/22 14:13:31;;;;;;;3.08;1.60;;;;;;;0.50;37.41;96907.56;6365789;27;21174;-70
2022/03/22 14:16:32;;;;;;;2.45;1.48;;;;;;;0.32;37.18;96904.56;6373495;27;20045;-71
2022/03/22 14:19:39;;;;;;;;;;;;;;;0.18;36.76;96907.47;6376081;27;20034;-71
2022/03/22 14:22:46;;;;;;;3.67;1.80;;;;;;;0.14;37.81;96910.13;6373825;27;19919;-72
2022/03/22 14:25:56;;;;;;;3.97;2.47;;;;;;;0.13;38.01;96916.22;6355025;27;20038;-71
2022/03/22 14:28:59;;;;;;;1.40;1.30;;;;;;;0.11;37.92;96897.28;6378093;27;20543;-71
2022/03/22 14:32:03;;;;;;;1.75;1.65;;;;;;;0.13;37.90;96916.22;6373088;27;20409;-71
2022/03/22 14:38:31;;;;;;;1.45;1.30;;;;;;;-0.12;37.98;96919.34;6349641;27;20043;-72
2022/03/22 14:41:36;;;;;;;1.63;1.40;;;;;;;-0.26;38.40;96917.03;6375366;27;20211;-63
2022/03/22 14:44:44;;;;;;;1.70;1.60;;;;;;;-0.25;38.52;96933.44;6391066;27;20043;-63
2022/03/22 14:47:49;;;;;;;4.00;1.70;;;;;;;-0.33;38.83;96935.31;6377079;27;20050;-63
2022/03/22 14:50:57;;;;;;;3.20;1.95;;;;;;;-0.54;39.47;96932.31;6376887;27;20039;-62
2022/03/22 14:54:04;;;;;;;1.90;1.45;;;;;;;-0.75;39.33;96930.97;6374527;27;20043;-63
2022/03/22 15:00:28;;;;;;;3.05;1.92;;;;;;;-0.97;39.77;96927.09;6382255;27;20046;-62
2022/03/22 15:03:32;;;;;;;5.03;3.50;;;;;;;-0.95;39.50;96926.19;6382292;27;20047;-64
2022/03/22 15:06:40;;;;;;;4.15;2.63;;;;;;;-1.05;39.94;96929.81;6373520;27;20053;-66
2022/03/22 15:09:44;;;;;;;3.67;2.53;;;;;;;-1.13;39.89;96922.22;6375814;27;20047;-64
2022/03/22 15:12:48;;;;;;;2.22;2.00;;;;;;;-1.12;39.84;96912.72;6373241;27;20058;-62
2022/03/22 15:15:54;;;;;;;3.25;1.70;;;;;;;-1.15;40.00;96902.47;6390169;27;20121;-63
2022/03/22 15:18:58;;;;;;;3.60;1.52;;;;;;;-1.09;39.82;96894.59;6388023;27;20047;-61
2022/03/22 15:22:03;;;;;;;5.05;2.08;;;;;;;-1.11;39.73;96896.34;6383020;27;20054;-63
2022/03/22 15:25:08;;;;;;;3.00;1.88;;;;;;;-1.13;39.80;96890.38;6375950;27;20618;-62
2022/03/22 15:28:10;;;;;;;2.55;1.83;;;;;;;-1.17;39.63;96893.88;6371744;27;20508;-61
2022/03/22 15:31:15;;;;;;;2.75;1.85;;;;;;;-1.14;40.02;96899.00;6382049;27;20043;-61
2022/03/22 15:34:21;;;;;;;3.47;1.50;;;;;;;-1.28;40.34;96906.13;6380785;27;20038;-67